Friday, November 24, 2017, 12:23 AM GMT
Back to Local

CYQI, Yarmouth, N. S.

Location: , , Canada Lat: 43.833
Local Time: 12:23 AM GMT ( 0:23 GMT) Lon: -66.083
Time Zone: GMT Elev: 141 ft

Show me the last for .
Show Coded

Time T Td Feel RH Dir Speed Gust Alt SLP Vis Weather Sky Remarks
2017-11-24 00:00 36 27 28 69 290° 10 - 29.90 29.91 15 SCT028 None
2017-11-23 23:00 36 27 29 69 300° 8 - 29.90 29.90 15 SCT027 None
2017-11-23 22:00 36 27 29 69 300° 9 - 29.91 29.92 15 BKN026 None
2017-11-23 21:00 36 28 29 74 300° 9 - 29.90 29.91 15 OVC024 None
2017-11-23 20:00 36 27 27 69 290° 13 - 29.89 29.90 15 BKN023 None
2017-11-23 19:00 37 28 28 69 310° 10 17 29.87 29.88 15 BKN022 None
2017-11-23 18:00 37 28 29 69 330° 13 - 29.86 29.86 15 OVC022 None
2017-11-23 17:00 37 28 28 69 310° 16 - 29.86 29.87 15 OVC021 None
2017-11-23 16:00 37 28 27 69 330° 16 22 29.87 29.87 15 OVC023 None
2017-11-23 15:00 39 30 30 69 320° 18 - 29.88 29.89 15 OVC025 None
2017-11-23 14:00 39 30 28 69 310° 17 25 29.86 29.87 15 OVC025 Pressure rising rapidly
2017-11-23 13:00 39 32 28 75 310° 20 28 29.82 29.83 15 OVC023 None
2017-11-23 12:00 39 32 27 75 330° 18 30 29.79 29.80 12 BKN022 None
2017-11-23 11:00 39 34 27 80 320° 23 33 29.75 29.76 10 BKN022 Pressure rising rapidly
2017-11-23 10:00 39 34 26 80 330° 28 37 29.71 29.72 9 BKN020 None
2017-11-23 09:00 41 37 29 86 320° 26 37 29.68 29.69 9 OVC017 None
2017-11-23 08:00 41 37 28 86 320° 30 43 29.64 29.64 9 OVC014 None
2017-11-23 07:00 43 37 30 81 320° 31 44 29.60 29.60 9 -SHRA OVC012 Pressure rising rapidly
2017-11-23 06:00 43 41 31 93 320° 25 38 29.51 29.52 9 -SHRA OVC009 Pressure rising rapidly
2017-11-23 05:20 45 43 33 93 330° 28 40 29.47 29.47 9 -SHRA OVC009 Pressure rising rapidly
2017-11-23 05:00 45 43 34 93 340° 26 37 29.44 29.44 9 -RA OVC007 None
2017-11-23 04:34 45 43 33 93 350° 31 43 29.44 29.45 3 -RA BR OVC006 None
2017-11-23 04:00 46 45 36 93 340° 32 43 29.43 29.44 3 RA BR OVC005 None
2017-11-23 03:26 48 48 38 100 330° 30 40 29.43 29.44 2 RA BR OVC004 Wind Shift: 03 min
2017-11-23 03:00 55 54 - 93 280° 9 - 29.44 29.45 2 +RA BR BKN010 OVC025 None
2017-11-23 02:53 54 54 - 100 310° 6 - 29.44 29.45 2 RA BR OVC010 None
2017-11-23 02:31 55 54 - 93 350° 3 - 29.46 29.46 3 -RA BR SCT005 BKN011 OVC029 Pressure falling rapidly
2017-11-23 02:00 55 54 - 93 100° 3 - 29.49 29.49 3 RA BR OVC029 Pressure falling rapidly
2017-11-23 01:00 55 55 - 100 170° 12 21 29.57 29.58 2 +RA BR SCT004 OVC030 Pressure falling rapidly
2017-11-23 00:46 55 55 - 100 160° 12 17 29.59 29.60 3 +RA BR SCT004 BKN007 OVC016 None
2017-11-23 00:41 55 54 - 93 160° 10 21 29.60 29.60 3 RA BR SCT007 OVC016 None

Support USWX by starting your Amazon purchase here.